sensor_id;sensor_type;location;lat;lon;timestamp;P1;durP1;ratioP1;P2;durP2;ratioP2
59434;SDS011;45241;49.768;8.636;2024-02-21T00:02:21;17.50;;;6.82;;
59434;SDS011;45241;49.768;8.636;2024-02-21T00:04:46;21.67;;;7.60;;
59434;SDS011;45241;49.768;8.636;2024-02-21T00:07:11;20.75;;;7.15;;
59434;SDS011;45241;49.768;8.636;2024-02-21T00:09:37;20.08;;;7.60;;
59434;SDS011;45241;49.768;8.636;2024-02-21T00:12:02;17.63;;;7.20;;
59434;SDS011;45241;49.768;8.636;2024-02-21T00:14:28;18.50;;;6.97;;
59434;SDS011;45241;49.768;8.636;2024-02-21T00:16:53;14.23;;;6.75;;
59434;SDS011;45241;49.768;8.636;2024-02-21T00:19:18;17.25;;;6.90;;
59434;SDS011;45241;49.768;8.636;2024-02-21T00:21:44;18.92;;;6.47;;
59434;SDS011;45241;49.768;8.636;2024-02-21T00:24:09;16.33;;;6.70;;
59434;SDS011;45241;49.768;8.636;2024-02-21T00:26:34;21.77;;;7.38;;
59434;SDS011;45241;49.768;8.636;2024-02-21T00:28:59;18.83;;;7.10;;
59434;SDS011;45241;49.768;8.636;2024-02-21T00:31:25;16.60;;;6.82;;
59434;SDS011;45241;49.768;8.636;2024-02-21T00:33:50;16.95;;;7.68;;
59434;SDS011;45241;49.768;8.636;2024-02-21T00:36:15;23.42;;;7.47;;
59434;SDS011;45241;49.768;8.636;2024-02-21T00:38:41;18.17;;;7.00;;
59434;SDS011;45241;49.768;8.636;2024-02-21T00:41:06;21.45;;;6.90;;
59434;SDS011;45241;49.768;8.636;2024-02-21T00:43:31;18.50;;;7.45;;
59434;SDS011;45241;49.768;8.636;2024-02-21T00:45:57;19.58;;;7.35;;
59434;SDS011;45241;49.768;8.636;2024-02-21T00:48:22;23.60;;;6.60;;
59434;SDS011;45241;49.768;8.636;2024-02-21T00:50:47;18.70;;;7.15;;
59434;SDS011;45241;49.768;8.636;2024-02-21T00:53:13;17.15;;;6.93;;
59434;SDS011;45241;49.768;8.636;2024-02-21T00:55:38;22.50;;;7.15;;
59434;SDS011;45241;49.768;8.636;2024-02-21T00:58:03;13.80;;;7.45;;
59434;SDS011;45241;49.768;8.636;2024-02-21T01:00:29;17.50;;;7.10;;
59434;SDS011;45241;49.768;8.636;2024-02-21T01:02:54;15.98;;;7.22;;
59434;SDS011;45241;49.768;8.636;2024-02-21T01:05:19;19.48;;;7.18;;
59434;SDS011;45241;49.768;8.636;2024-02-21T01:07:45;18.33;;;7.15;;
59434;SDS011;45241;49.768;8.636;2024-02-21T01:10:10;19.85;;;7.50;;
59434;SDS011;45241;49.768;8.636;2024-02-21T01:12:35;19.80;;;6.88;;
59434;SDS011;45241;49.768;8.636;2024-02-21T01:15:01;21.13;;;7.68;;
59434;SDS011;45241;49.768;8.636;2024-02-21T01:17:27;18.85;;;7.30;;
59434;SDS011;45241;49.768;8.636;2024-02-21T01:19:52;20.85;;;7.47;;
59434;SDS011;45241;49.768;8.636;2024-02-21T01:22:17;19.13;;;7.63;;
59434;SDS011;45241;49.768;8.636;2024-02-21T01:24:43;17.75;;;7.43;;
59434;SDS011;45241;49.768;8.636;2024-02-21T01:27:08;16.20;;;7.22;;
59434;SDS011;45241;49.768;8.636;2024-02-21T01:29:33;18.15;;;7.05;;
59434;SDS011;45241;49.768;8.636;2024-02-21T01:31:59;19.63;;;6.68;;
59434;SDS011;45241;49.768;8.636;2024-02-21T01:34:24;16.15;;;7.10;;
59434;SDS011;45241;49.768;8.636;2024-02-21T01:36:49;17.50;;;7.53;;
59434;SDS011;45241;49.768;8.636;2024-02-21T01:39:15;19.88;;;7.07;;
59434;SDS011;45241;49.768;8.636;2024-02-21T01:41:40;20.17;;;6.95;;
59434;SDS011;45241;49.768;8.636;2024-02-21T01:44:05;17.42;;;7.15;;
59434;SDS011;45241;49.768;8.636;2024-02-21T01:46:30;16.02;;;6.82;;
59434;SDS011;45241;49.768;8.636;2024-02-21T01:48:56;18.42;;;6.55;;
59434;SDS011;45241;49.768;8.636;2024-02-21T01:51:22;17.13;;;7.13;;
59434;SDS011;45241;49.768;8.636;2024-02-21T01:53:49;15.82;;;6.40;;
59434;SDS011;45241;49.768;8.636;2024-02-21T01:56:16;18.90;;;6.25;;
59434;SDS011;45241;49.768;8.636;2024-02-21T01:58:42;15.70;;;6.35;;
59434;SDS011;45241;49.768;8.636;2024-02-21T02:01:09;18.20;;;6.28;;
59434;SDS011;45241;49.768;8.636;2024-02-21T02:03:35;16.42;;;6.13;;
59434;SDS011;45241;49.768;8.636;2024-02-21T02:06:01;15.73;;;6.10;;
59434;SDS011;45241;49.768;8.636;2024-02-21T02:08:27;14.80;;;5.43;;
59434;SDS011;45241;49.768;8.636;2024-02-21T02:10:52;19.10;;;5.95;;
59434;SDS011;45241;49.768;8.636;2024-02-21T02:13:18;15.68;;;5.70;;
59434;SDS011;45241;49.768;8.636;2024-02-21T02:15:44;16.67;;;6.13;;
59434;SDS011;45241;49.768;8.636;2024-02-21T02:18:11;15.65;;;6.13;;
59434;SDS011;45241;49.768;8.636;2024-02-21T02:20:37;15.68;;;5.85;;
59434;SDS011;45241;49.768;8.636;2024-02-21T02:23:06;19.48;;;6.25;;
59434;SDS011;45241;49.768;8.636;2024-02-21T02:25:35;19.83;;;6.13;;
59434;SDS011;45241;49.768;8.636;2024-02-21T02:28:00;15.07;;;5.82;;
59434;SDS011;45241;49.768;8.636;2024-02-21T02:30:26;14.27;;;5.70;;
59434;SDS011;45241;49.768;8.636;2024-02-21T02:32:51;23.55;;;6.55;;
59434;SDS011;45241;49.768;8.636;2024-02-21T02:35:16;11.45;;;5.57;;
59434;SDS011;45241;49.768;8.636;2024-02-21T02:37:47;22.08;;;7.20;;
59434;SDS011;45241;49.768;8.636;2024-02-21T02:40:14;18.95;;;6.97;;
59434;SDS011;45241;49.768;8.636;2024-02-21T02:42:39;18.27;;;7.03;;
59434;SDS011;45241;49.768;8.636;2024-02-21T02:45:05;18.52;;;6.72;;
59434;SDS011;45241;49.768;8.636;2024-02-21T02:47:30;17.42;;;6.13;;
59434;SDS011;45241;49.768;8.636;2024-02-21T02:49:56;15.82;;;6.22;;
59434;SDS011;45241;49.768;8.636;2024-02-21T02:52:21;14.40;;;6.22;;
59434;SDS011;45241;49.768;8.636;2024-02-21T02:54:46;15.95;;;5.97;;
59434;SDS011;45241;49.768;8.636;2024-02-21T02:57:16;16.70;;;6.68;;
59434;SDS011;45241;49.768;8.636;2024-02-21T02:59:42;16.45;;;6.32;;
59434;SDS011;45241;49.768;8.636;2024-02-21T03:02:07;15.70;;;6.10;;
59434;SDS011;45241;49.768;8.636;2024-02-21T03:04:32;15.07;;;6.20;;
59434;SDS011;45241;49.768;8.636;2024-02-21T03:06:58;15.55;;;6.32;;
59434;SDS011;45241;49.768;8.636;2024-02-21T03:09:23;14.73;;;6.10;;
59434;SDS011;45241;49.768;8.636;2024-02-21T03:11:48;16.45;;;6.30;;
59434;SDS011;45241;49.768;8.636;2024-02-21T03:14:14;14.27;;;6.32;;
59434;SDS011;45241;49.768;8.636;2024-02-21T03:16:39;16.95;;;6.30;;
59434;SDS011;45241;49.768;8.636;2024-02-21T03:19:04;16.52;;;6.88;;
59434;SDS011;45241;49.768;8.636;2024-02-21T03:21:29;20.50;;;6.85;;
59434;SDS011;45241;49.768;8.636;2024-02-21T03:23:55;16.58;;;6.55;;
59434;SDS011;45241;49.768;8.636;2024-02-21T03:26:20;18.27;;;7.00;;
59434;SDS011;45241;49.768;8.636;2024-02-21T03:28:46;16.88;;;6.10;;
59434;SDS011;45241;49.768;8.636;2024-02-21T03:31:11;15.52;;;6.60;;
59434;SDS011;45241;49.768;8.636;2024-02-21T03:33:37;20.30;;;7.20;;
59434;SDS011;45241;49.768;8.636;2024-02-21T03:36:03;17.90;;;6.13;;
59434;SDS011;45241;49.768;8.636;2024-02-21T03:38:29;13.85;;;6.40;;
59434;SDS011;45241;49.768;8.636;2024-02-21T03:40:54;17.42;;;6.45;;
59434;SDS011;45241;49.768;8.636;2024-02-21T03:43:19;17.27;;;6.90;;
59434;SDS011;45241;49.768;8.636;2024-02-21T03:45:44;15.07;;;6.28;;
59434;SDS011;45241;49.768;8.636;2024-02-21T03:48:10;17.65;;;5.80;;
59434;SDS011;45241;49.768;8.636;2024-02-21T03:50:35;15.30;;;6.15;;
59434;SDS011;45241;49.768;8.636;2024-02-21T03:53:00;15.90;;;5.72;;
59434;SDS011;45241;49.768;8.636;2024-02-21T03:55:26;18.45;;;6.95;;
59434;SDS011;45241;49.768;8.636;2024-02-21T03:57:51;21.38;;;6.40;;
59434;SDS011;45241;49.768;8.636;2024-02-21T04:00:16;20.13;;;6.57;;
59434;SDS011;45241;49.768;8.636;2024-02-21T04:02:42;15.73;;;6.20;;
59434;SDS011;45241;49.768;8.636;2024-02-21T04:05:08;19.00;;;6.03;;
59434;SDS011;45241;49.768;8.636;2024-02-21T04:07:36;18.40;;;6.53;;
59434;SDS011;45241;49.768;8.636;2024-02-21T04:10:02;13.70;;;5.43;;
59434;SDS011;45241;49.768;8.636;2024-02-21T04:12:27;19.25;;;6.35;;
59434;SDS011;45241;49.768;8.636;2024-02-21T04:14:52;20.20;;;6.22;;
59434;SDS011;45241;49.768;8.636;2024-02-21T04:17:18;16.90;;;6.25;;
59434;SDS011;45241;49.768;8.636;2024-02-21T04:19:43;16.35;;;6.13;;
59434;SDS011;45241;49.768;8.636;2024-02-21T04:22:08;14.90;;;6.05;;
59434;SDS011;45241;49.768;8.636;2024-02-21T04:24:33;16.17;;;6.50;;
59434;SDS011;45241;49.768;8.636;2024-02-21T04:26:59;14.77;;;6.13;;
59434;SDS011;45241;49.768;8.636;2024-02-21T04:29:24;16.90;;;6.80;;
59434;SDS011;45241;49.768;8.636;2024-02-21T04:31:49;15.38;;;6.63;;
59434;SDS011;45241;49.768;8.636;2024-02-21T04:34:15;17.52;;;6.40;;
59434;SDS011;45241;49.768;8.636;2024-02-21T04:36:40;15.63;;;6.45;;
59434;SDS011;45241;49.768;8.636;2024-02-21T04:39:05;20.92;;;5.95;;
59434;SDS011;45241;49.768;8.636;2024-02-21T04:41:31;14.93;;;6.00;;
59434;SDS011;45241;49.768;8.636;2024-02-21T04:43:56;18.52;;;6.07;;
59434;SDS011;45241;49.768;8.636;2024-02-21T04:46:21;15.02;;;6.45;;
59434;SDS011;45241;49.768;8.636;2024-02-21T04:48:46;17.92;;;6.72;;
59434;SDS011;45241;49.768;8.636;2024-02-21T04:51:12;17.25;;;6.28;;
59434;SDS011;45241;49.768;8.636;2024-02-21T04:53:38;17.77;;;6.38;;
59434;SDS011;45241;49.768;8.636;2024-02-21T04:56:04;16.95;;;6.90;;
59434;SDS011;45241;49.768;8.636;2024-02-21T04:58:29;17.25;;;6.05;;
59434;SDS011;45241;49.768;8.636;2024-02-21T05:00:54;15.95;;;6.13;;
59434;SDS011;45241;49.768;8.636;2024-02-21T05:03:20;16.58;;;6.63;;
59434;SDS011;45241;49.768;8.636;2024-02-21T05:05:45;15.27;;;6.15;;
59434;SDS011;45241;49.768;8.636;2024-02-21T05:08:11;17.35;;;6.15;;
59434;SDS011;45241;49.768;8.636;2024-02-21T05:10:36;14.90;;;5.45;;
59434;SDS011;45241;49.768;8.636;2024-02-21T05:13:01;16.40;;;5.60;;
59434;SDS011;45241;49.768;8.636;2024-02-21T05:15:27;15.82;;;5.78;;
59434;SDS011;45241;49.768;8.636;2024-02-21T05:17:52;13.00;;;5.05;;
59434;SDS011;45241;49.768;8.636;2024-02-21T05:20:17;19.48;;;5.00;;
59434;SDS011;45241;49.768;8.636;2024-02-21T05:22:43;15.27;;;4.80;;
59434;SDS011;45241;49.768;8.636;2024-02-21T05:25:08;11.75;;;4.65;;
59434;SDS011;45241;49.768;8.636;2024-02-21T05:27:33;13.32;;;4.68;;
59434;SDS011;45241;49.768;8.636;2024-02-21T05:30:00;17.63;;;4.60;;
59434;SDS011;45241;49.768;8.636;2024-02-21T05:32:26;15.23;;;5.10;;
59434;SDS011;45241;49.768;8.636;2024-02-21T05:34:51;17.77;;;5.40;;
59434;SDS011;45241;49.768;8.636;2024-02-21T05:37:17;13.20;;;4.57;;
59434;SDS011;45241;49.768;8.636;2024-02-21T05:39:42;15.18;;;4.97;;
59434;SDS011;45241;49.768;8.636;2024-02-21T05:42:07;13.75;;;5.22;;
59434;SDS011;45241;49.768;8.636;2024-02-21T05:44:32;14.05;;;5.00;;
59434;SDS011;45241;49.768;8.636;2024-02-21T05:46:58;15.05;;;5.43;;
59434;SDS011;45241;49.768;8.636;2024-02-21T05:49:23;18.88;;;5.63;;
59434;SDS011;45241;49.768;8.636;2024-02-21T05:51:48;13.25;;;5.07;;
59434;SDS011;45241;49.768;8.636;2024-02-21T05:54:14;18.20;;;5.55;;
59434;SDS011;45241;49.768;8.636;2024-02-21T05:56:39;17.70;;;5.72;;
59434;SDS011;45241;49.768;8.636;2024-02-21T05:59:04;13.98;;;5.88;;
59434;SDS011;45241;49.768;8.636;2024-02-21T06:01:29;14.98;;;5.38;;
59434;SDS011;45241;49.768;8.636;2024-02-21T06:03:55;20.70;;;6.05;;
59434;SDS011;45241;49.768;8.636;2024-02-21T06:06:20;19.30;;;5.43;;
59434;SDS011;45241;49.768;8.636;2024-02-21T06:08:46;15.13;;;5.25;;
59434;SDS011;45241;49.768;8.636;2024-02-21T06:11:12;13.75;;;5.15;;
59434;SDS011;45241;49.768;8.636;2024-02-21T06:13:38;13.98;;;5.38;;
59434;SDS011;45241;49.768;8.636;2024-02-21T06:16:04;14.65;;;5.60;;
59434;SDS011;45241;49.768;8.636;2024-02-21T06:18:31;15.45;;;5.15;;
59434;SDS011;45241;49.768;8.636;2024-02-21T06:20:56;16.88;;;5.88;;
59434;SDS011;45241;49.768;8.636;2024-02-21T06:23:21;15.35;;;5.72;;
59434;SDS011;45241;49.768;8.636;2024-02-21T06:25:46;15.68;;;5.20;;
59434;SDS011;45241;49.768;8.636;2024-02-21T06:28:12;16.85;;;5.82;;
59434;SDS011;45241;49.768;8.636;2024-02-21T06:30:38;15.65;;;5.20;;
59434;SDS011;45241;49.768;8.636;2024-02-21T06:33:04;15.90;;;5.28;;
59434;SDS011;45241;49.768;8.636;2024-02-21T06:35:29;15.45;;;5.10;;
59434;SDS011;45241;49.768;8.636;2024-02-21T06:37:55;15.25;;;5.90;;
59434;SDS011;45241;49.768;8.636;2024-02-21T06:40:21;17.17;;;5.78;;
59434;SDS011;45241;49.768;8.636;2024-02-21T06:42:47;16.83;;;6.28;;
59434;SDS011;45241;49.768;8.636;2024-02-21T06:45:13;15.63;;;5.50;;
59434;SDS011;45241;49.768;8.636;2024-02-21T06:47:38;16.42;;;5.68;;
59434;SDS011;45241;49.768;8.636;2024-02-21T06:50:04;14.50;;;5.93;;
59434;SDS011;45241;49.768;8.636;2024-02-21T06:52:29;15.30;;;5.25;;
59434;SDS011;45241;49.768;8.636;2024-02-21T06:54:55;16.55;;;5.97;;
59434;SDS011;45241;49.768;8.636;2024-02-21T06:57:21;15.65;;;6.03;;
59434;SDS011;45241;49.768;8.636;2024-02-21T06:59:46;20.40;;;6.13;;
59434;SDS011;45241;49.768;8.636;2024-02-21T07:02:12;18.30;;;6.05;;
59434;SDS011;45241;49.768;8.636;2024-02-21T07:04:37;15.10;;;5.97;;
59434;SDS011;45241;49.768;8.636;2024-02-21T07:07:02;16.95;;;6.13;;
59434;SDS011;45241;49.768;8.636;2024-02-21T07:09:28;15.80;;;6.22;;
59434;SDS011;45241;49.768;8.636;2024-02-21T07:11:56;15.27;;;5.78;;
59434;SDS011;45241;49.768;8.636;2024-02-21T07:14:22;20.67;;;6.30;;
59434;SDS011;45241;49.768;8.636;2024-02-21T07:16:47;17.60;;;5.40;;
59434;SDS011;45241;49.768;8.636;2024-02-21T07:19:12;14.40;;;5.88;;
59434;SDS011;45241;49.768;8.636;2024-02-21T07:21:37;20.88;;;6.03;;
59434;SDS011;45241;49.768;8.636;2024-02-21T07:24:06;16.50;;;6.05;;
59434;SDS011;45241;49.768;8.636;2024-02-21T07:26:31;15.93;;;6.10;;
59434;SDS011;45241;49.768;8.636;2024-02-21T07:28:57;14.35;;;5.93;;
59434;SDS011;45241;49.768;8.636;2024-02-21T07:31:22;15.18;;;5.57;;
59434;SDS011;45241;49.768;8.636;2024-02-21T07:33:47;14.57;;;5.45;;
59434;SDS011;45241;49.768;8.636;2024-02-21T07:36:14;12.88;;;5.32;;
59434;SDS011;45241;49.768;8.636;2024-02-21T07:38:40;13.95;;;5.65;;
59434;SDS011;45241;49.768;8.636;2024-02-21T07:41:06;14.25;;;6.40;;
59434;SDS011;45241;49.768;8.636;2024-02-21T07:43:31;14.75;;;5.90;;
59434;SDS011;45241;49.768;8.636;2024-02-21T07:45:57;19.60;;;6.63;;
59434;SDS011;45241;49.768;8.636;2024-02-21T07:48:22;15.77;;;5.53;;
59434;SDS011;45241;49.768;8.636;2024-02-21T07:50:50;14.90;;;5.38;;
59434;SDS011;45241;49.768;8.636;2024-02-21T07:53:15;14.60;;;5.90;;
59434;SDS011;45241;49.768;8.636;2024-02-21T07:55:41;20.38;;;6.53;;
59434;SDS011;45241;49.768;8.636;2024-02-21T07:58:06;15.90;;;5.65;;
59434;SDS011;45241;49.768;8.636;2024-02-21T08:00:32;14.18;;;5.90;;
59434;SDS011;45241;49.768;8.636;2024-02-21T08:02:57;15.93;;;5.72;;
59434;SDS011;45241;49.768;8.636;2024-02-21T08:05:23;14.50;;;4.97;;
59434;SDS011;45241;49.768;8.636;2024-02-21T08:07:48;16.20;;;6.45;;
59434;SDS011;45241;49.768;8.636;2024-02-21T08:10:13;17.02;;;5.80;;
59434;SDS011;45241;49.768;8.636;2024-02-21T08:12:39;13.82;;;5.82;;
59434;SDS011;45241;49.768;8.636;2024-02-21T08:15:04;18.92;;;5.70;;
59434;SDS011;45241;49.768;8.636;2024-02-21T08:17:30;17.63;;;5.82;;
59434;SDS011;45241;49.768;8.636;2024-02-21T08:19:55;11.07;;;5.47;;
59434;SDS011;45241;49.768;8.636;2024-02-21T08:22:21;14.30;;;5.63;;
59434;SDS011;45241;49.768;8.636;2024-02-21T08:24:46;12.35;;;5.22;;
59434;SDS011;45241;49.768;8.636;2024-02-21T08:27:12;11.15;;;5.13;;
59434;SDS011;45241;49.768;8.636;2024-02-21T08:29:37;13.95;;;5.13;;
59434;SDS011;45241;49.768;8.636;2024-02-21T08:32:02;14.88;;;5.70;;
59434;SDS011;45241;49.768;8.636;2024-02-21T08:34:28;14.00;;;5.82;;
59434;SDS011;45241;49.768;8.636;2024-02-21T08:36:55;14.13;;;5.50;;
59434;SDS011;45241;49.768;8.636;2024-02-21T08:39:20;14.18;;;5.47;;
59434;SDS011;45241;49.768;8.636;2024-02-21T08:41:46;15.23;;;4.82;;
59434;SDS011;45241;49.768;8.636;2024-02-21T08:44:11;13.80;;;5.00;;
59434;SDS011;45241;49.768;8.636;2024-02-21T08:46:36;11.88;;;4.72;;
59434;SDS011;45241;49.768;8.636;2024-02-21T08:49:05;11.75;;;5.22;;
59434;SDS011;45241;49.768;8.636;2024-02-21T08:51:30;15.70;;;5.30;;
59434;SDS011;45241;49.768;8.636;2024-02-21T08:53:55;11.23;;;4.93;;
59434;SDS011;45241;49.768;8.636;2024-02-21T08:56:21;13.10;;;5.07;;
59434;SDS011;45241;49.768;8.636;2024-02-21T08:58:46;14.50;;;5.10;;
59434;SDS011;45241;49.768;8.636;2024-02-21T09:01:11;17.30;;;5.60;;
59434;SDS011;45241;49.768;8.636;2024-02-21T09:03:37;14.32;;;5.70;;
59434;SDS011;45241;49.768;8.636;2024-02-21T09:06:06;16.30;;;5.60;;
59434;SDS011;45241;49.768;8.636;2024-02-21T09:08:32;15.15;;;5.50;;
59434;SDS011;45241;49.768;8.636;2024-02-21T09:10:58;18.20;;;5.50;;
59434;SDS011;45241;49.768;8.636;2024-02-21T09:13:25;20.63;;;5.45;;
59434;SDS011;45241;49.768;8.636;2024-02-21T09:15:50;13.95;;;6.28;;
59434;SDS011;45241;49.768;8.636;2024-02-21T09:18:15;16.95;;;6.13;;
59434;SDS011;45241;49.768;8.636;2024-02-21T09:20:44;12.98;;;5.63;;
59434;SDS011;45241;49.768;8.636;2024-02-21T09:23:10;13.50;;;5.43;;
59434;SDS011;45241;49.768;8.636;2024-02-21T09:25:35;13.00;;;5.60;;
59434;SDS011;45241;49.768;8.636;2024-02-21T09:28:01;16.63;;;5.50;;
59434;SDS011;45241;49.768;8.636;2024-02-21T09:30:28;13.90;;;5.43;;
59434;SDS011;45241;49.768;8.636;2024-02-21T09:32:53;11.80;;;5.15;;
59434;SDS011;45241;49.768;8.636;2024-02-21T09:35:18;12.07;;;4.72;;
59434;SDS011;45241;49.768;8.636;2024-02-21T09:37:44;12.57;;;4.55;;
59434;SDS011;45241;49.768;8.636;2024-02-21T09:40:09;10.20;;;4.38;;
59434;SDS011;45241;49.768;8.636;2024-02-21T09:45:09;12.80;;;4.32;;
59434;SDS011;45241;49.768;8.636;2024-02-21T09:48:02;12.57;;;4.60;;
59434;SDS011;45241;49.768;8.636;2024-02-21T09:50:43;14.07;;;4.88;;
59434;SDS011;45241;49.768;8.636;2024-02-21T09:53:09;11.77;;;4.68;;
59434;SDS011;45241;49.768;8.636;2024-02-21T09:55:37;12.32;;;4.40;;
59434;SDS011;45241;49.768;8.636;2024-02-21T09:58:06;13.88;;;5.13;;
59434;SDS011;45241;49.768;8.636;2024-02-21T10:00:32;12.95;;;4.45;;
59434;SDS011;45241;49.768;8.636;2024-02-21T10:02:58;14.95;;;4.70;;
59434;SDS011;45241;49.768;8.636;2024-02-21T10:05:24;12.35;;;4.60;;
59434;SDS011;45241;49.768;8.636;2024-02-21T10:07:50;14.90;;;4.80;;
59434;SDS011;45241;49.768;8.636;2024-02-21T10:10:16;15.00;;;4.53;;
59434;SDS011;45241;49.768;8.636;2024-02-21T10:12:52;12.55;;;4.65;;
59434;SDS011;45241;49.768;8.636;2024-02-21T10:15:21;16.60;;;4.90;;
59434;SDS011;45241;49.768;8.636;2024-02-21T10:17:48;12.20;;;4.97;;
59434;SDS011;45241;49.768;8.636;2024-02-21T10:20:14;10.70;;;4.30;;
59434;SDS011;45241;49.768;8.636;2024-02-21T10:22:41;10.32;;;4.90;;
59434;SDS011;45241;49.768;8.636;2024-02-21T10:25:09;13.90;;;4.68;;
59434;SDS011;45241;49.768;8.636;2024-02-21T10:27:36;11.10;;;4.50;;
59434;SDS011;45241;49.768;8.636;2024-02-21T10:30:02;12.45;;;4.18;;
59434;SDS011;45241;49.768;8.636;2024-02-21T10:32:28;12.13;;;4.93;;
59434;SDS011;45241;49.768;8.636;2024-02-21T10:35:01;12.27;;;4.40;;
59434;SDS011;45241;49.768;8.636;2024-02-21T10:37:29;16.52;;;5.50;;
59434;SDS011;45241;49.768;8.636;2024-02-21T10:39:55;14.68;;;5.32;;
59434;SDS011;45241;49.768;8.636;2024-02-21T10:42:22;14.05;;;4.97;;
59434;SDS011;45241;49.768;8.636;2024-02-21T10:44:48;14.80;;;5.18;;
59434;SDS011;45241;49.768;8.636;2024-02-21T10:47:16;16.45;;;4.93;;
59434;SDS011;45241;49.768;8.636;2024-02-21T10:49:46;13.35;;;4.45;;
59434;SDS011;45241;49.768;8.636;2024-02-21T10:55:03;12.85;;;4.55;;
59434;SDS011;45241;49.768;8.636;2024-02-21T10:57:29;15.50;;;5.07;;
59434;SDS011;45241;49.768;8.636;2024-02-21T10:59:56;11.05;;;4.50;;
59434;SDS011;45241;49.768;8.636;2024-02-21T11:02:24;15.32;;;4.60;;
59434;SDS011;45241;49.768;8.636;2024-02-21T11:04:50;12.93;;;4.95;;
59434;SDS011;45241;49.768;8.636;2024-02-21T11:07:18;13.60;;;4.72;;
59434;SDS011;45241;49.768;8.636;2024-02-21T11:09:50;11.63;;;4.90;;
59434;SDS011;45241;49.768;8.636;2024-02-21T11:12:19;11.13;;;4.95;;
59434;SDS011;45241;49.768;8.636;2024-02-21T11:14:48;12.20;;;4.85;;
59434;SDS011;45241;49.768;8.636;2024-02-21T11:17:14;11.95;;;4.68;;
59434;SDS011;45241;49.768;8.636;2024-02-21T11:19:41;11.73;;;4.75;;
59434;SDS011;45241;49.768;8.636;2024-02-21T11:22:13;10.18;;;4.90;;
59434;SDS011;45241;49.768;8.636;2024-02-21T11:24:40;11.13;;;4.55;;
59434;SDS011;45241;49.768;8.636;2024-02-21T11:29:39;11.50;;;4.40;;
59434;SDS011;45241;49.768;8.636;2024-02-21T11:32:08;11.98;;;3.78;;
59434;SDS011;45241;49.768;8.636;2024-02-21T11:34:35;10.13;;;4.00;;
59434;SDS011;45241;49.768;8.636;2024-02-21T11:37:00;12.38;;;4.13;;
59434;SDS011;45241;49.768;8.636;2024-02-21T11:39:26;9.63;;;4.10;;
59434;SDS011;45241;49.768;8.636;2024-02-21T11:44:26;10.40;;;3.60;;
59434;SDS011;45241;49.768;8.636;2024-02-21T11:46:51;10.32;;;3.90;;
59434;SDS011;45241;49.768;8.636;2024-02-21T11:49:16;14.55;;;3.63;;
59434;SDS011;45241;49.768;8.636;2024-02-21T11:51:42;9.20;;;3.47;;
59434;SDS011;45241;49.768;8.636;2024-02-21T11:54:07;10.32;;;3.35;;
59434;SDS011;45241;49.768;8.636;2024-02-21T11:56:32;12.15;;;3.35;;
59434;SDS011;45241;49.768;8.636;2024-02-21T11:59:00;11.50;;;4.10;;
59434;SDS011;45241;49.768;8.636;2024-02-21T12:01:25;11.05;;;3.30;;
59434;SDS011;45241;49.768;8.636;2024-02-21T12:03:50;10.68;;;3.45;;
59434;SDS011;45241;49.768;8.636;2024-02-21T12:06:16;11.68;;;3.40;;
59434;SDS011;45241;49.768;8.636;2024-02-21T12:08:47;8.90;;;3.17;;
59434;SDS011;45241;49.768;8.636;2024-02-21T12:11:31;11.60;;;3.15;;
59434;SDS011;45241;49.768;8.636;2024-02-21T12:14:00;8.85;;;3.50;;
59434;SDS011;45241;49.768;8.636;2024-02-21T12:16:29;9.48;;;3.28;;
59434;SDS011;45241;49.768;8.636;2024-02-21T12:18:55;12.60;;;3.50;;
59434;SDS011;45241;49.768;8.636;2024-02-21T12:21:25;10.53;;;3.00;;
59434;SDS011;45241;49.768;8.636;2024-02-21T12:23:57;10.25;;;3.70;;
59434;SDS011;45241;49.768;8.636;2024-02-21T12:26:35;10.35;;;2.72;;
59434;SDS011;45241;49.768;8.636;2024-02-21T12:29:01;11.02;;;3.30;;
59434;SDS011;45241;49.768;8.636;2024-02-21T12:31:26;8.45;;;2.80;;
59434;SDS011;45241;49.768;8.636;2024-02-21T12:33:52;10.75;;;2.70;;
59434;SDS011;45241;49.768;8.636;2024-02-21T12:36:18;15.80;;;3.53;;
59434;SDS011;45241;49.768;8.636;2024-02-21T12:38:43;10.30;;;2.92;;
59434;SDS011;45241;49.768;8.636;2024-02-21T12:41:09;6.32;;;2.50;;
59434;SDS011;45241;49.768;8.636;2024-02-21T12:43:34;11.75;;;2.90;;
59434;SDS011;45241;49.768;8.636;2024-02-21T12:45:59;8.25;;;2.55;;
59434;SDS011;45241;49.768;8.636;2024-02-21T12:48:25;7.15;;;2.70;;
59434;SDS011;45241;49.768;8.636;2024-02-21T12:50:50;8.60;;;2.63;;
59434;SDS011;45241;49.768;8.636;2024-02-21T12:53:17;8.30;;;2.65;;
59434;SDS011;45241;49.768;8.636;2024-02-21T12:55:44;9.65;;;3.00;;
59434;SDS011;45241;49.768;8.636;2024-02-21T12:58:10;6.53;;;2.67;;
59434;SDS011;45241;49.768;8.636;2024-02-21T13:00:35;12.38;;;2.90;;
59434;SDS011;45241;49.768;8.636;2024-02-21T13:03:00;8.45;;;2.72;;
59434;SDS011;45241;49.768;8.636;2024-02-21T13:05:26;9.55;;;2.88;;
59434;SDS011;45241;49.768;8.636;2024-02-21T13:07:52;8.88;;;3.15;;
59434;SDS011;45241;49.768;8.636;2024-02-21T13:10:17;8.68;;;2.67;;
59434;SDS011;45241;49.768;8.636;2024-02-21T13:12:43;8.95;;;3.00;;
59434;SDS011;45241;49.768;8.636;2024-02-21T13:15:08;8.77;;;2.75;;
59434;SDS011;45241;49.768;8.636;2024-02-21T13:17:36;10.05;;;3.13;;
59434;SDS011;45241;49.768;8.636;2024-02-21T13:20:02;9.85;;;3.10;;
59434;SDS011;45241;49.768;8.636;2024-02-21T13:22:28;9.60;;;3.10;;
59434;SDS011;45241;49.768;8.636;2024-02-21T13:24:53;11.50;;;3.10;;
59434;SDS011;45241;49.768;8.636;2024-02-21T13:27:18;11.73;;;3.38;;
59434;SDS011;45241;49.768;8.636;2024-02-21T13:29:43;8.15;;;2.45;;
59434;SDS011;45241;49.768;8.636;2024-02-21T13:32:10;8.82;;;2.35;;
59434;SDS011;45241;49.768;8.636;2024-02-21T13:34:35;8.98;;;2.63;;
59434;SDS011;45241;49.768;8.636;2024-02-21T13:37:01;8.27;;;2.75;;
59434;SDS011;45241;49.768;8.636;2024-02-21T13:39:26;7.38;;;2.28;;
59434;SDS011;45241;49.768;8.636;2024-02-21T13:41:51;8.20;;;2.63;;
59434;SDS011;45241;49.768;8.636;2024-02-21T13:44:17;9.30;;;2.58;;
59434;SDS011;45241;49.768;8.636;2024-02-21T13:46:42;9.80;;;2.95;;
59434;SDS011;45241;49.768;8.636;2024-02-21T13:49:08;8.65;;;2.67;;
59434;SDS011;45241;49.768;8.636;2024-02-21T13:51:36;8.02;;;2.90;;
59434;SDS011;45241;49.768;8.636;2024-02-21T13:54:04;11.63;;;2.78;;
59434;SDS011;45241;49.768;8.636;2024-02-21T13:56:30;17.25;;;3.28;;
59434;SDS011;45241;49.768;8.636;2024-02-21T13:58:55;8.18;;;2.83;;
59434;SDS011;45241;49.768;8.636;2024-02-21T14:01:22;11.32;;;3.25;;
59434;SDS011;45241;49.768;8.636;2024-02-21T14:03:47;9.70;;;3.05;;
59434;SDS011;45241;49.768;8.636;2024-02-21T14:06:13;8.60;;;2.75;;
59434;SDS011;45241;49.768;8.636;2024-02-21T14:08:38;9.57;;;2.72;;
59434;SDS011;45241;49.768;8.636;2024-02-21T14:11:04;7.70;;;2.55;;
59434;SDS011;45241;49.768;8.636;2024-02-21T14:13:31;9.20;;;3.08;;
59434;SDS011;45241;49.768;8.636;2024-02-21T14:15:56;14.35;;;2.90;;
59434;SDS011;45241;49.768;8.636;2024-02-21T14:18:21;7.93;;;2.60;;
59434;SDS011;45241;49.768;8.636;2024-02-21T14:20:47;9.30;;;2.47;;
59434;SDS011;45241;49.768;8.636;2024-02-21T14:23:12;8.90;;;2.47;;
59434;SDS011;45241;49.768;8.636;2024-02-21T14:25:38;11.23;;;2.90;;
59434;SDS011;45241;49.768;8.636;2024-02-21T14:28:04;8.10;;;2.30;;
59434;SDS011;45241;49.768;8.636;2024-02-21T14:30:30;13.05;;;2.90;;
59434;SDS011;45241;49.768;8.636;2024-02-21T14:32:55;6.60;;;2.50;;
59434;SDS011;45241;49.768;8.636;2024-02-21T14:35:21;7.38;;;2.22;;
59434;SDS011;45241;49.768;8.636;2024-02-21T14:37:46;6.60;;;2.38;;
59434;SDS011;45241;49.768;8.636;2024-02-21T14:40:13;7.85;;;2.63;;